createdAt,value
2022-11-28T00:04:56.006Z,4.55
2022-11-28T00:09:57.677Z,4.53
2022-11-28T00:14:59.260Z,4.49
2022-11-28T00:20:00.724Z,4.53
2022-11-28T00:25:02.227Z,4.47
2022-11-28T00:30:04.291Z,4.48
2022-11-28T00:35:06.165Z,4.50
2022-11-28T00:40:08.016Z,4.49
2022-11-28T00:45:10.101Z,4.50
2022-11-28T00:50:11.692Z,4.55
2022-11-28T00:55:13.142Z,4.55
2022-11-28T01:00:15.182Z,4.63
2022-11-28T01:05:17.491Z,4.67
2022-11-28T01:10:19.297Z,4.64
2022-11-28T01:15:20.871Z,4.62
2022-11-28T01:20:22.456Z,4.53
2022-11-28T01:25:24.684Z,4.66
2022-11-28T01:30:26.282Z,4.69
2022-11-28T01:35:27.957Z,4.69
2022-11-28T01:40:29.572Z,4.66
2022-11-28T01:45:33.505Z,4.79
2022-11-28T01:50:36.131Z,4.74
2022-11-28T01:55:48.353Z,4.80
2022-11-28T02:00:49.964Z,4.71
2022-11-28T02:05:52.308Z,4.71
2022-11-28T02:11:11.949Z,4.73
2022-11-28T02:16:24.548Z,4.68
2022-11-28T02:21:35.940Z,4.75
2022-11-28T02:27:04.187Z,4.71
2022-11-28T02:32:21.921Z,4.65
2022-11-28T02:37:30.241Z,4.59
2022-11-28T02:42:53.505Z,4.56
2022-11-28T02:48:03.123Z,4.56
2022-11-28T02:53:09.589Z,4.60
2022-11-28T02:58:12.403Z,4.66
2022-11-28T03:03:22.685Z,4.74
2022-11-28T03:08:30.461Z,4.74
2022-11-28T03:13:56.520Z,4.75
2022-11-28T03:19:16.612Z,4.79
2022-11-28T03:24:27.938Z,4.79
2022-11-28T03:29:46.841Z,4.84
2022-11-28T03:34:54.347Z,4.76
2022-11-28T03:40:02.675Z,4.80
2022-11-28T03:45:13.796Z,4.80
2022-11-28T03:50:21.682Z,4.84
2022-11-28T03:55:43.829Z,4.83
2022-11-28T04:01:16.195Z,4.81
2022-11-28T04:06:33.620Z,4.79
2022-11-28T04:11:44.497Z,4.84
2022-11-28T04:16:53.927Z,4.83
2022-11-28T04:22:16.420Z,4.84
2022-11-28T04:27:23.336Z,4.78
2022-11-28T04:32:26.924Z,4.79
2022-11-28T04:37:30.568Z,4.78
2022-11-28T04:42:52.462Z,4.88
2022-11-28T04:47:55.042Z,4.85
2022-11-28T04:53:06.096Z,4.91
2022-11-28T04:58:16.939Z,4.81
2022-11-28T05:03:18.616Z,4.81
2022-11-28T05:08:20.233Z,4.73
2022-11-28T05:13:21.749Z,4.82
2022-11-28T05:18:23.237Z,4.81
2022-11-28T05:23:24.741Z,4.77
2022-11-28T05:28:26.233Z,4.71
2022-11-28T05:33:31.577Z,4.77
2022-11-28T05:38:33.577Z,4.68
2022-11-28T05:43:35.425Z,4.76
2022-11-28T05:48:36.939Z,4.72
2022-11-28T05:53:38.601Z,4.63
2022-11-28T05:58:40.512Z,4.69
2022-11-28T06:03:42.747Z,4.65
2022-11-28T06:08:45.225Z,4.62
2022-11-28T06:13:47.829Z,4.56
2022-11-28T06:18:54.070Z,4.63
2022-11-28T06:23:57.844Z,4.62
2022-11-28T06:28:59.408Z,4.62
2022-11-28T06:34:00.846Z,4.60
2022-11-28T06:39:02.340Z,4.56
2022-11-28T06:44:03.915Z,4.56
2022-11-28T06:49:06.232Z,4.63
2022-11-28T06:54:08.231Z,4.58
2022-11-28T06:59:12.081Z,4.55
2022-11-28T07:04:13.763Z,4.56
2022-11-28T07:09:15.216Z,4.56
2022-11-28T07:14:16.732Z,4.61
2022-11-28T07:19:23.088Z,4.60
2022-11-28T07:24:24.673Z,4.52
2022-11-28T07:29:31.308Z,4.55
2022-11-28T07:34:33.226Z,4.58
2022-11-28T07:39:34.697Z,4.63
2022-11-28T07:44:36.191Z,4.58
2022-11-28T07:49:37.626Z,4.53
2022-11-28T07:54:39.207Z,4.48
2022-11-28T07:59:40.954Z,4.63
2022-11-28T08:04:48.416Z,4.63
2022-11-28T08:09:52.025Z,4.66
2022-11-28T08:14:53.519Z,4.72
2022-11-28T08:19:55.010Z,4.68
2022-11-28T08:24:56.558Z,4.72
2022-11-28T08:29:58.105Z,4.75
2022-11-28T08:34:59.780Z,4.73
2022-11-28T08:40:01.449Z,4.79
2022-11-28T08:45:03.341Z,4.85
2022-11-28T08:50:05.476Z,4.89
2022-11-28T08:55:07.340Z,4.83
2022-11-28T09:00:11.066Z,4.93
2022-11-28T09:05:12.627Z,4.89
2022-11-28T09:10:14.145Z,4.72
2022-11-28T09:15:15.732Z,4.76
2022-11-28T09:20:17.262Z,4.81
2022-11-28T09:25:18.805Z,4.77
2022-11-28T09:30:22.919Z,4.83
2022-11-28T09:35:24.537Z,4.87
2022-11-28T09:40:37.705Z,4.87
2022-11-28T09:45:39.583Z,4.91
2022-11-28T09:50:42.723Z,4.80
2022-11-28T09:56:05.687Z,4.82
2022-11-28T10:01:16.800Z,4.85
2022-11-28T10:06:33.695Z,4.93
2022-11-28T10:12:03.395Z,4.90
2022-11-28T10:17:24.823Z,4.81
2022-11-28T10:22:37.518Z,4.77
2022-11-28T10:27:40.947Z,4.67
2022-11-28T10:32:47.133Z,4.66
2022-11-28T10:37:50.949Z,4.58
2022-11-28T10:42:58.192Z,4.47
2022-11-28T10:48:38.108Z,4.41
2022-11-28T10:53:35.619Z,4.38
2022-11-28T10:58:58.523Z,4.39
2022-11-28T11:04:00.417Z,4.45
2022-11-28T11:09:02.079Z,4.42
2022-11-28T11:14:09.381Z,4.40
2022-11-28T11:19:23.639Z,4.45
2022-11-28T11:24:25.138Z,4.40
2022-11-28T11:29:30.839Z,4.46
2022-11-28T11:34:38.164Z,4.44
2022-11-28T11:39:48.609Z,4.46
2022-11-28T11:44:50.306Z,4.41
2022-11-28T11:50:04.194Z,4.50
2022-11-28T11:55:15.167Z,4.52
2022-11-28T12:00:28.250Z,4.45
2022-11-28T12:06:06.492Z,4.48
2022-11-28T12:11:14.381Z,4.51
2022-11-28T12:16:36.993Z,4.53
2022-11-28T12:21:50.685Z,4.52
2022-11-28T12:27:10.080Z,4.49
2022-11-28T12:32:28.669Z,4.44
2022-11-28T12:38:02.791Z,4.37
2022-11-28T12:43:15.976Z,4.43
2022-11-28T12:48:42.634Z,4.33
2022-11-28T12:54:10.688Z,4.33
2022-11-28T12:59:25.805Z,4.35
2022-11-28T13:04:35.971Z,4.30
2022-11-28T13:09:43.693Z,4.25
2022-11-28T13:14:57.308Z,4.28
2022-11-28T13:20:12.400Z,4.28
2022-11-28T13:25:23.955Z,4.19
2022-11-28T13:30:28.794Z,4.14
2022-11-28T13:35:30.891Z,4.18
2022-11-28T13:40:42.267Z,4.18
2022-11-28T13:45:45.827Z,4.11
2022-11-28T13:51:06.705Z,3.97
2022-11-28T13:56:08.430Z,4.03
2022-11-28T14:01:14.679Z,4.01
2022-11-28T14:06:38.401Z,4.00
2022-11-28T14:11:49.857Z,3.99
2022-11-28T14:16:52.159Z,4.02
2022-11-28T14:22:24.006Z,3.94
2022-11-28T14:27:30.145Z,3.83
2022-11-28T14:32:38.944Z,3.90
2022-11-28T14:37:55.366Z,3.84
2022-11-28T14:43:27.825Z,3.89
2022-11-28T14:48:30.292Z,3.81
2022-11-28T14:53:44.460Z,3.83
2022-11-28T14:58:51.418Z,3.81
2022-11-28T15:04:19.361Z,3.79
2022-11-28T15:09:37.176Z,3.69
2022-11-28T15:14:39.929Z,3.70
2022-11-28T15:19:48.183Z,3.65
2022-11-28T15:24:52.192Z,3.71
2022-11-28T15:30:04.435Z,3.70
2022-11-28T15:35:12.293Z,3.70
2022-11-28T15:40:24.998Z,3.74
2022-11-28T15:45:26.475Z,3.70
2022-11-28T15:50:30.379Z,3.59
2022-11-28T15:55:34.101Z,3.71
2022-11-28T16:00:36.004Z,3.67
2022-11-28T16:05:39.074Z,3.65
2022-11-28T16:10:44.142Z,3.58
2022-11-28T16:15:50.337Z,3.65
2022-11-28T16:20:52.212Z,3.62
2022-11-28T16:26:06.603Z,3.68
2022-11-28T16:31:23.667Z,3.66
2022-11-28T16:36:33.350Z,3.66
2022-11-28T16:41:36.453Z,3.61
2022-11-28T16:46:49.885Z,3.61
2022-11-28T16:52:24.176Z,3.61
2022-11-28T16:57:45.736Z,3.53
2022-11-28T17:02:51.630Z,3.59
2022-11-28T17:07:53.719Z,3.64
2022-11-28T17:12:55.286Z,3.64
2022-11-28T17:17:57.805Z,3.64
2022-11-28T17:22:59.273Z,3.61
2022-11-28T17:28:00.844Z,3.59
2022-11-28T17:33:05.019Z,3.63
2022-11-28T17:38:06.448Z,3.59
2022-11-28T17:43:18.495Z,3.63
2022-11-28T17:48:20.017Z,3.55
2022-11-28T17:53:22.349Z,3.51
2022-11-28T17:58:23.977Z,3.50
2022-11-28T18:03:25.424Z,3.57
2022-11-28T18:08:27.004Z,3.54
2022-11-28T18:13:28.543Z,3.58
2022-11-28T18:18:30.553Z,3.53
2022-11-28T18:23:31.997Z,3.59
2022-11-28T18:28:33.461Z,3.54
2022-11-28T18:33:35.266Z,3.54
2022-11-28T18:38:41.573Z,3.52
2022-11-28T18:43:43.927Z,3.52
2022-11-28T18:48:47.336Z,3.51
2022-11-28T18:53:50.251Z,3.54
2022-11-28T18:58:53.520Z,3.51
2022-11-28T19:03:57.260Z,3.52
2022-11-28T19:09:00.881Z,3.50
2022-11-28T19:14:02.360Z,3.53
2022-11-28T19:19:05.705Z,3.50
2022-11-28T19:24:08.495Z,3.50
2022-11-28T19:29:10.780Z,3.50
2022-11-28T19:34:17.756Z,3.53
2022-11-28T19:39:22.446Z,3.50
2022-11-28T19:44:24.660Z,3.48
2022-11-28T19:49:26.467Z,3.48
2022-11-28T19:54:28.031Z,3.53
2022-11-28T19:59:31.247Z,3.49
2022-11-28T20:04:32.781Z,3.41
2022-11-28T20:09:34.482Z,3.50
2022-11-28T20:14:36.069Z,3.48
2022-11-28T20:19:37.553Z,3.55
2022-11-28T20:24:39.084Z,3.50
2022-11-28T20:29:40.586Z,3.47
2022-11-28T20:34:42.110Z,3.49
2022-11-28T20:39:43.915Z,3.49
2022-11-28T20:44:46.006Z,3.46
2022-11-28T20:49:47.484Z,3.46
2022-11-28T20:54:48.970Z,3.42
2022-11-28T20:59:50.575Z,3.45
2022-11-28T21:04:52.091Z,3.43
2022-11-28T21:09:59.638Z,3.45
2022-11-28T21:15:02.010Z,3.44
2022-11-28T21:20:04.744Z,3.43
2022-11-28T21:25:06.602Z,3.44
2022-11-28T21:30:09.084Z,3.49
2022-11-28T21:35:10.669Z,3.41
2022-11-28T21:40:12.914Z,3.44
2022-11-28T21:45:14.424Z,3.44
2022-11-28T21:50:15.932Z,3.40
2022-11-28T21:55:17.576Z,3.42
2022-11-28T22:00:38.707Z,3.43
2022-11-28T22:05:40.756Z,3.45
2022-11-28T22:10:42.232Z,3.42
2022-11-28T22:15:43.853Z,3.44
2022-11-28T22:20:50.263Z,3.48
2022-11-28T22:25:54.375Z,3.42
2022-11-28T22:30:55.937Z,3.52
2022-11-28T22:36:19.213Z,3.55
2022-11-28T22:41:28.238Z,3.55
2022-11-28T22:46:31.389Z,3.50
2022-11-28T22:51:32.912Z,3.51
2022-11-28T22:56:34.637Z,3.53
2022-11-28T23:01:36.120Z,3.54
2022-11-28T23:06:37.697Z,3.48
2022-11-28T23:11:39.677Z,3.55
2022-11-28T23:16:42.472Z,3.57
2022-11-28T23:21:46.487Z,3.52
2022-11-28T23:26:48.955Z,3.59
2022-11-28T23:31:50.501Z,3.60
2022-11-28T23:36:52.013Z,3.53
2022-11-28T23:41:53.634Z,3.55
2022-11-28T23:46:55.205Z,3.54
2022-11-28T23:51:56.652Z,3.56
2022-11-28T23:56:58.190Z,3.55
